createdAt,value
2019-05-16T00:02:01.482Z,5.97
2019-05-16T00:04:37.991Z,3.03
2019-05-16T00:07:28.184Z,5.03
2019-05-16T00:10:15.740Z,4.80
2019-05-16T00:13:03.622Z,4.40
2019-05-16T00:15:51.227Z,4.50
2019-05-16T00:18:39.280Z,3.77
2019-05-16T00:21:28.261Z,3.93
2019-05-16T00:24:18.520Z,4.10
2019-05-16T00:27:08.160Z,5.33
2019-05-16T00:29:57.973Z,3.10
2019-05-16T00:32:45.116Z,5.23
2019-05-16T00:35:33.096Z,4.90
2019-05-16T00:38:20.897Z,4.57
2019-05-16T00:41:08.689Z,3.27
2019-05-16T00:43:57.734Z,5.67
2019-05-16T00:46:45.568Z,6.97
2019-05-16T00:49:33.381Z,3.83
2019-05-16T00:56:10.722Z,5.53
2019-05-16T00:58:59.486Z,3.30
2019-05-16T01:01:50.004Z,5.17
2019-05-16T01:04:38.165Z,3.67
2019-05-16T01:07:27.728Z,7.17
2019-05-16T01:10:15.462Z,4.50
2019-05-16T01:13:03.241Z,4.13
2019-05-16T01:15:50.954Z,4.90
2019-05-16T01:18:38.797Z,4.10
2019-05-16T01:21:28.739Z,3.53
2019-05-16T01:24:18.710Z,4.70
2019-05-16T01:27:08.224Z,4.83
2019-05-16T01:29:55.741Z,3.97
2019-05-16T01:32:43.645Z,3.67
2019-05-16T01:35:31.968Z,4.47
2019-05-16T01:38:20.157Z,3.97
2019-05-16T01:41:08.780Z,4.40
2019-05-16T01:43:58.529Z,3.80
2019-05-16T01:46:48.069Z,5.30
2019-05-16T01:49:37.990Z,5.23
2019-05-16T01:52:25.525Z,3.60
2019-05-16T01:55:13.233Z,3.77
2019-05-16T01:58:01.164Z,4.80
2019-05-16T02:01:02.584Z,3.43
2019-05-16T02:03:39.030Z,3.03
2019-05-16T02:06:28.782Z,4.40
2019-05-16T02:09:18.910Z,6.30
2019-05-16T02:12:08.123Z,5.93
2019-05-16T02:14:55.825Z,3.17
2019-05-16T02:17:43.452Z,3.27
2019-05-16T02:20:31.576Z,3.00
2019-05-16T02:23:19.213Z,2.83
2019-05-16T02:26:07.959Z,3.47
2019-05-16T02:28:56.247Z,4.40
2019-05-16T02:31:44.225Z,4.13
2019-05-16T02:34:32.094Z,3.13
2019-05-16T02:37:25.939Z,3.60
2019-05-16T02:40:11.979Z,3.43
2019-05-16T02:43:01.572Z,3.57
2019-05-16T02:45:51.931Z,3.93
2019-05-16T02:48:40.976Z,5.43
2019-05-16T02:51:31.551Z,3.27
2019-05-16T02:54:21.494Z,4.43
2019-05-16T02:57:11.138Z,4.27
2019-05-16T02:59:57.570Z,4.90
2019-05-16T03:02:45.797Z,3.50
2019-05-16T03:05:34.277Z,5.40
2019-05-16T03:08:22.983Z,4.13
2019-05-16T03:11:11.885Z,5.23
2019-05-16T03:14:00.692Z,3.83
2019-05-16T03:16:50.733Z,3.40
2019-05-16T03:19:41.498Z,3.40
2019-05-16T03:22:31.548Z,4.67
2019-05-16T03:25:21.998Z,3.77
2019-05-16T03:28:11.177Z,7.90
2019-05-16T03:31:04.310Z,4.40
2019-05-16T03:33:57.919Z,4.87
2019-05-16T03:36:43.774Z,3.73
2019-05-16T03:39:31.303Z,4.73
2019-05-16T03:42:20.475Z,3.23
2019-05-16T03:45:10.808Z,3.57
2019-05-16T03:48:02.251Z,5.97
2019-05-16T03:50:50.772Z,6.63
2019-05-16T03:53:40.273Z,3.60
2019-05-16T03:56:30.562Z,5.63
2019-05-16T03:59:16.960Z,3.80
2019-05-16T04:02:04.749Z,5.23
2019-05-16T04:04:52.510Z,3.77
2019-05-16T04:07:41.686Z,3.27
2019-05-16T04:10:30.905Z,4.03
2019-05-16T04:13:21.381Z,3.90
2019-05-16T04:16:11.795Z,4.70
2019-05-16T04:19:01.640Z,3.20
2019-05-16T04:21:51.104Z,5.20
2019-05-16T04:24:38.351Z,3.53
2019-05-16T04:27:26.413Z,4.40
2019-05-16T04:30:14.356Z,4.73
2019-05-16T04:33:02.130Z,4.50
2019-05-16T04:35:52.443Z,5.37
2019-05-16T04:38:42.830Z,3.67
2019-05-16T04:41:31.306Z,3.60
2019-05-16T04:44:21.070Z,5.73
2019-05-16T04:47:11.046Z,3.67
2019-05-16T04:50:01.596Z,4.93
2019-05-16T04:52:47.919Z,4.00
2019-05-16T04:55:35.511Z,4.90
2019-05-16T04:58:24.045Z,4.60
2019-05-16T05:01:12.081Z,6.27
2019-05-16T05:04:10.378Z,5.00
2019-05-16T05:06:51.264Z,4.83
2019-05-16T05:09:40.894Z,4.33
2019-05-16T05:12:31.520Z,4.53
2019-05-16T05:15:21.343Z,6.23
2019-05-16T05:18:10.155Z,4.57
2019-05-16T05:21:00.816Z,4.70
2019-05-16T05:23:47.652Z,4.40
2019-05-16T05:26:35.557Z,4.03
2019-05-16T05:29:23.425Z,4.63
2019-05-16T05:32:14.415Z,4.70
2019-05-16T05:35:00.627Z,6.20
2019-05-16T05:37:50.583Z,5.40
2019-05-16T05:40:40.381Z,4.10
2019-05-16T05:43:30.307Z,5.23
2019-05-16T05:46:20.275Z,4.10
2019-05-16T05:49:10.260Z,6.03
2019-05-16T05:51:57.134Z,4.60
2019-05-16T05:54:44.996Z,4.77
2019-05-16T05:57:32.749Z,5.37
2019-05-16T06:00:21.223Z,5.17
2019-05-16T06:03:10.707Z,5.10
2019-05-16T06:06:00.873Z,5.07
2019-05-16T06:08:50.150Z,4.83
2019-05-16T06:11:37.996Z,7.23
2019-05-16T06:14:25.836Z,4.83
2019-05-16T06:17:13.975Z,6.27
2019-05-16T06:20:02.007Z,4.90
2019-05-16T06:22:50.959Z,6.93
2019-05-16T06:25:40.583Z,5.17
2019-05-16T06:28:30.752Z,6.53
2019-05-16T06:31:21.771Z,6.93
2019-05-16T06:34:14.501Z,6.10
2019-05-16T06:37:00.334Z,7.00
2019-05-16T06:39:50.066Z,5.30
2019-05-16T06:42:40.052Z,6.63
2019-05-16T06:45:27.022Z,7.33
2019-05-16T06:48:14.870Z,5.33
2019-05-16T06:51:03.273Z,5.87
2019-05-16T06:53:51.424Z,6.27
2019-05-16T06:56:40.072Z,5.33
2019-05-16T06:59:29.796Z,5.57
2019-05-16T07:02:27.818Z,7.27
2019-05-16T07:05:09.951Z,7.93
2019-05-16T07:07:57.240Z,6.57
2019-05-16T07:10:44.931Z,7.40
2019-05-16T07:13:32.869Z,8.20
2019-05-16T07:16:20.925Z,10.00
2019-05-16T07:19:10.439Z,7.40
2019-05-16T07:21:59.813Z,7.30
2019-05-16T07:24:47.811Z,6.50
2019-05-16T07:27:39.888Z,7.70
2019-05-16T07:30:27.166Z,7.77
2019-05-16T07:33:20.726Z,9.37
2019-05-16T07:36:09.959Z,6.93
2019-05-16T07:38:59.774Z,9.13
2019-05-16T07:41:47.196Z,8.97
2019-05-16T07:44:35.039Z,6.33
2019-05-16T07:47:23.005Z,11.03
2019-05-16T07:50:11.318Z,7.77
2019-05-16T07:52:59.976Z,9.43
2019-05-16T07:55:50.578Z,11.60
2019-05-16T07:58:37.548Z,7.17
2019-05-16T08:01:25.459Z,8.23
2019-05-16T08:04:13.401Z,8.97
2019-05-16T08:07:01.125Z,8.63
2019-05-16T08:09:50.504Z,8.50
2019-05-16T08:12:40.689Z,6.60
2019-05-16T08:15:30.407Z,6.83
2019-05-16T08:18:20.955Z,8.63
2019-05-16T08:21:07.790Z,8.57
2019-05-16T08:23:55.752Z,8.33
2019-05-16T08:26:43.733Z,6.60
2019-05-16T08:29:31.927Z,7.17
2019-05-16T08:32:23.090Z,7.03
2019-05-16T08:35:11.185Z,6.63
2019-05-16T08:38:01.116Z,8.20
2019-05-16T08:41:06.267Z,7.83
2019-05-16T08:43:41.144Z,8.60
2019-05-16T08:46:27.802Z,6.63
2019-05-16T08:49:15.637Z,7.30
2019-05-16T08:52:03.580Z,7.33
2019-05-16T08:54:51.420Z,6.67
2019-05-16T08:57:40.881Z,6.97
2019-05-16T09:00:33.442Z,6.63
2019-05-16T09:03:22.319Z,7.47
2019-05-16T09:06:11.537Z,8.20
2019-05-16T09:09:09.067Z,6.87
2019-05-16T09:11:48.759Z,5.23
2019-05-16T09:14:39.009Z,6.17
2019-05-16T09:17:27.640Z,4.60
2019-05-16T09:20:17.379Z,6.27
2019-05-16T09:23:07.438Z,7.07
2019-05-16T09:25:57.935Z,5.30
2019-05-16T09:28:47.809Z,5.80
2019-05-16T09:31:34.511Z,9.93
2019-05-16T09:34:22.676Z,5.27
2019-05-16T09:37:10.684Z,4.20
2019-05-16T09:39:58.131Z,4.97
2019-05-16T09:42:47.322Z,4.80
2019-05-16T09:45:37.794Z,5.43
2019-05-16T09:48:28.030Z,5.20
2019-05-16T09:51:17.270Z,5.53
2019-05-16T09:54:07.193Z,4.93
2019-05-16T09:56:57.218Z,4.73
2019-05-16T09:59:46.485Z,6.53
2019-05-16T10:02:36.736Z,9.33
2019-05-16T10:05:26.629Z,7.57
2019-05-16T10:08:13.616Z,5.93
2019-05-16T10:11:01.093Z,6.43
2019-05-16T10:13:48.856Z,5.00
2019-05-16T10:16:36.849Z,6.27
2019-05-16T10:19:27.374Z,8.47
2019-05-16T10:22:17.056Z,5.17
2019-05-16T10:25:06.766Z,7.40
2019-05-16T10:27:54.449Z,5.10
2019-05-16T10:30:42.434Z,6.20
2019-05-16T10:33:30.228Z,6.70
2019-05-16T10:36:21.744Z,5.77
2019-05-16T10:39:08.215Z,5.40
2019-05-16T10:41:57.424Z,4.83
2019-05-16T10:44:47.977Z,6.27
2019-05-16T10:47:36.930Z,6.10
2019-05-16T10:50:24.782Z,6.33
2019-05-16T10:53:39.871Z,5.50
2019-05-16T10:56:03.620Z,5.47
2019-05-16T10:59:21.558Z,5.20
2019-05-16T11:01:41.586Z,5.73
2019-05-16T11:04:48.422Z,8.07
2019-05-16T11:07:19.476Z,6.90
2019-05-16T11:10:07.811Z,5.37
2019-05-16T11:12:59.483Z,8.87
2019-05-16T11:15:45.693Z,5.00
2019-05-16T11:18:33.660Z,7.40
2019-05-16T11:21:21.801Z,6.33
2019-05-16T11:24:12.503Z,6.10
2019-05-16T11:26:59.824Z,4.67
2019-05-16T11:29:47.512Z,4.83
2019-05-16T11:32:37.389Z,6.07
2019-05-16T11:35:27.313Z,6.27
2019-05-16T11:38:14.032Z,5.03
2019-05-16T11:41:01.715Z,4.90
2019-05-16T11:43:49.564Z,6.77
2019-05-16T11:46:37.656Z,4.57
2019-05-16T11:49:27.569Z,5.93
2019-05-16T11:52:17.839Z,6.43
2019-05-16T11:55:07.566Z,5.57
2019-05-16T11:57:56.864Z,6.03
2019-05-16T12:00:47.897Z,6.43
2019-05-16T12:03:37.279Z,4.57
2019-05-16T12:06:26.627Z,5.60
2019-05-16T12:09:14.417Z,8.80
2019-05-16T12:12:04.284Z,5.17
2019-05-16T12:14:54.992Z,5.67
2019-05-16T12:17:41.796Z,7.57
2019-05-16T12:20:29.772Z,5.67
2019-05-16T12:23:17.616Z,5.90
2019-05-16T12:26:07.907Z,5.80
2019-05-16T12:28:57.287Z,5.53
2019-05-16T12:31:55.193Z,6.03
2019-05-16T12:34:36.738Z,6.20
2019-05-16T12:37:24.437Z,5.63
2019-05-16T12:40:12.724Z,3.60
2019-05-16T12:43:00.515Z,4.03
2019-05-16T12:45:48.397Z,3.57
2019-05-16T12:48:37.302Z,3.27
2019-05-16T12:51:26.468Z,3.53
2019-05-16T12:54:17.966Z,3.23
2019-05-16T12:57:04.413Z,3.70
2019-05-16T12:59:52.626Z,6.07
2019-05-16T13:02:40.736Z,3.70
2019-05-16T13:05:28.551Z,3.50
2019-05-16T13:08:17.397Z,3.33
2019-05-16T13:11:07.117Z,5.90
2019-05-16T13:14:03.530Z,3.90
2019-05-16T13:16:47.078Z,4.37
2019-05-16T13:19:34.943Z,3.43
2019-05-16T13:22:23.881Z,3.97
2019-05-16T13:25:11.944Z,3.83
2019-05-16T13:27:59.915Z,3.90
2019-05-16T13:30:48.089Z,3.87
2019-05-16T13:33:36.755Z,3.70
2019-05-16T13:36:27.086Z,4.10
2019-05-16T13:39:16.813Z,3.67
2019-05-16T13:42:04.192Z,5.50
2019-05-16T13:44:52.073Z,4.17
2019-05-16T13:47:39.709Z,3.50
2019-05-16T13:50:27.816Z,3.43
2019-05-16T13:53:16.380Z,3.07
2019-05-16T13:56:07.112Z,3.33
2019-05-16T13:58:53.943Z,3.37
2019-05-16T14:01:41.573Z,3.40
2019-05-16T14:04:29.244Z,4.23
2019-05-16T14:07:17.314Z,4.17
2019-05-16T14:10:09.442Z,3.97
2019-05-16T14:12:57.724Z,4.17
2019-05-16T14:15:47.306Z,4.00
2019-05-16T14:18:37.615Z,5.10
2019-05-16T14:21:25.058Z,4.60
2019-05-16T14:24:12.996Z,5.57
2019-05-16T14:27:00.647Z,3.43
2019-05-16T14:29:48.325Z,5.53
2019-05-16T14:32:40.975Z,4.80
2019-05-16T14:35:26.791Z,3.73
2019-05-16T14:38:17.342Z,3.63
2019-05-16T14:41:04.178Z,3.87
2019-05-16T14:43:51.990Z,4.87
2019-05-16T14:46:39.789Z,5.03
2019-05-16T14:49:28.737Z,4.97
2019-05-16T14:52:17.355Z,3.30
2019-05-16T14:55:07.376Z,6.13
2019-05-16T14:57:56.699Z,3.53
2019-05-16T15:00:48.421Z,3.97
2019-05-16T15:03:36.411Z,4.00
2019-05-16T15:06:23.958Z,3.00
2019-05-16T15:09:12.079Z,3.43
2019-05-16T15:12:02.921Z,4.73
2019-05-16T15:14:50.466Z,3.97
2019-05-16T15:17:47.361Z,3.23
2019-05-16T15:20:35.123Z,3.90
2019-05-16T15:23:22.974Z,5.67
2019-05-16T15:26:10.839Z,3.37
2019-05-16T15:28:59.218Z,4.87
2019-05-16T15:31:46.984Z,4.80
2019-05-16T15:34:37.804Z,2.80
2019-05-16T15:37:27.280Z,5.70
2019-05-16T15:40:14.652Z,3.80
2019-05-16T15:43:02.613Z,2.30
2019-05-16T15:45:53.247Z,3.33
2019-05-16T15:48:40.084Z,3.50
2019-05-16T15:51:28.156Z,5.73
2019-05-16T15:54:19.503Z,3.27
2019-05-16T15:57:07.596Z,2.47
2019-05-16T15:59:57.534Z,4.07
2019-05-16T16:02:44.857Z,3.90
2019-05-16T16:05:32.604Z,6.80
2019-05-16T16:08:20.519Z,3.37
2019-05-16T16:11:08.460Z,3.00
2019-05-16T16:13:57.644Z,5.37
2019-05-16T16:16:46.479Z,3.07
2019-05-16T16:19:34.469Z,3.00
2019-05-16T16:22:22.529Z,6.07
2019-05-16T16:25:10.286Z,6.93
2019-05-16T16:27:58.102Z,4.60
2019-05-16T16:30:48.030Z,2.80
2019-05-16T16:33:37.483Z,3.57
2019-05-16T16:36:24.804Z,3.47
2019-05-16T16:39:12.828Z,4.60
2019-05-16T16:42:00.770Z,4.30
2019-05-16T16:44:48.459Z,3.70
2019-05-16T16:47:37.685Z,3.50
2019-05-16T16:50:26.592Z,4.80
2019-05-16T16:53:14.752Z,3.63
2019-05-16T16:56:02.728Z,3.70
2019-05-16T16:58:50.766Z,4.93
2019-05-16T17:01:38.373Z,4.13
2019-05-16T17:04:26.646Z,3.97
2019-05-16T17:07:16.741Z,4.57
2019-05-16T17:10:09.016Z,4.43
2019-05-16T17:12:57.605Z,3.30
2019-05-16T17:15:47.641Z,3.10
2019-05-16T17:18:36.924Z,4.33
2019-05-16T17:21:25.065Z,5.00
2019-05-16T17:24:13.059Z,5.30
2019-05-16T17:27:00.945Z,3.63
2019-05-16T17:29:48.843Z,4.07
2019-05-16T17:32:36.714Z,3.87
2019-05-16T17:35:26.889Z,4.90
2019-05-16T17:38:13.805Z,3.13
2019-05-16T17:41:01.812Z,4.40
2019-05-16T17:43:49.428Z,3.17
2019-05-16T17:46:40.726Z,7.23
2019-05-16T17:49:26.682Z,4.17
2019-05-16T17:52:16.548Z,3.57
2019-05-16T17:55:07.234Z,5.17
2019-05-16T17:57:57.030Z,2.50
2019-05-16T18:00:47.164Z,4.63
2019-05-16T18:03:37.089Z,2.67
2019-05-16T18:06:24.490Z,2.63
2019-05-16T18:09:12.292Z,4.57
2019-05-16T18:12:00.002Z,2.77
2019-05-16T18:14:50.301Z,3.13
2019-05-16T18:17:37.853Z,5.90
2019-05-16T18:20:26.596Z,3.10
2019-05-16T18:23:16.494Z,4.53
2019-05-16T18:26:04.756Z,3.17
2019-05-16T18:28:52.340Z,2.53
2019-05-16T18:31:40.300Z,6.90
2019-05-16T18:34:28.309Z,5.73
2019-05-16T18:37:17.310Z,4.50
2019-05-16T18:40:08.721Z,6.37
2019-05-16T18:42:57.032Z,4.70
2019-05-16T18:45:47.225Z,3.40
2019-05-16T18:48:36.631Z,3.43
2019-05-16T18:51:26.350Z,5.23
2019-05-16T18:54:17.048Z,4.70
2019-05-16T18:57:06.830Z,4.37
2019-05-16T18:59:53.976Z,5.77
2019-05-16T19:02:42.047Z,6.03
2019-05-16T19:05:29.556Z,3.60
2019-05-16T19:08:17.483Z,6.63
2019-05-16T19:11:07.438Z,5.77
2019-05-16T19:13:56.354Z,5.23
2019-05-16T19:16:44.615Z,5.17
2019-05-16T19:19:32.588Z,5.20
2019-05-16T19:22:20.844Z,4.97
2019-05-16T19:25:08.934Z,3.80
2019-05-16T19:27:57.063Z,6.33
2019-05-16T19:30:46.560Z,5.27
2019-05-16T19:33:34.660Z,7.20
2019-05-16T19:36:22.520Z,6.23
2019-05-16T19:39:10.387Z,6.40
2019-05-16T19:41:58.412Z,5.53
2019-05-16T19:44:46.540Z,7.67
2019-05-16T19:47:38.470Z,6.97
2019-05-16T19:50:26.651Z,6.40
2019-05-16T19:53:16.515Z,6.50
2019-05-16T19:56:03.713Z,7.37
2019-05-16T19:58:51.497Z,8.90
2019-05-16T20:01:39.444Z,8.37
2019-05-16T20:04:27.534Z,6.37
2019-05-16T20:11:04.544Z,7.63
2019-05-16T20:13:52.167Z,6.87
2019-05-16T20:16:40.120Z,6.07
2019-05-16T20:19:28.066Z,5.63
2019-05-16T20:22:16.641Z,7.67
2019-05-16T20:25:06.839Z,7.17
2019-05-16T20:27:54.778Z,5.53
2019-05-16T20:30:42.785Z,9.53
2019-05-16T20:33:30.617Z,7.67
2019-05-16T20:36:18.685Z,7.07
2019-05-16T20:39:08.583Z,7.27
2019-05-16T20:41:59.634Z,8.03
2019-05-16T20:44:46.324Z,8.63
2019-05-16T20:47:35.346Z,7.67
2019-05-16T20:50:23.345Z,11.03
2019-05-16T20:53:11.128Z,9.00
2019-05-16T20:55:58.726Z,6.23
2019-05-16T20:58:48.636Z,7.50
2019-05-16T21:01:36.031Z,8.13
2019-05-16T21:04:24.081Z,7.87
2019-05-16T21:07:11.981Z,9.27
2019-05-16T21:09:59.689Z,8.47
2019-05-16T21:12:47.641Z,10.00
2019-05-16T21:15:37.259Z,8.13
2019-05-16T21:18:25.097Z,8.17
2019-05-16T21:21:12.892Z,9.37
2019-05-16T21:24:00.773Z,9.43
2019-05-16T21:26:48.517Z,9.97
2019-05-16T21:29:36.907Z,10.30
2019-05-16T21:32:26.957Z,9.43
2019-05-16T21:35:14.661Z,8.70
2019-05-16T21:38:02.520Z,10.33
2019-05-16T21:40:50.058Z,7.53
2019-05-16T21:43:37.923Z,8.70
2019-05-16T21:46:27.125Z,9.73
2019-05-16T21:49:16.507Z,9.03
2019-05-16T21:52:05.577Z,10.10
2019-05-16T21:54:53.454Z,9.23
2019-05-16T21:57:41.398Z,9.57
2019-05-16T22:00:37.497Z,9.47
2019-05-16T22:03:26.913Z,9.20
2019-05-16T22:06:16.586Z,9.43
2019-05-16T22:09:06.738Z,10.00
2019-05-16T22:11:57.108Z,10.57
2019-05-16T22:14:51.745Z,9.03
2019-05-16T22:17:39.585Z,8.77
2019-05-16T22:20:27.693Z,10.20
2019-05-16T22:23:17.198Z,9.47
2019-05-16T22:26:07.345Z,10.77
2019-05-16T22:28:57.293Z,11.90
2019-05-16T22:31:43.985Z,11.03
2019-05-16T22:34:32.037Z,11.53
2019-05-16T22:37:19.677Z,12.60
2019-05-16T22:40:07.879Z,11.23
2019-05-16T22:42:57.541Z,11.27
2019-05-16T22:45:46.811Z,11.80
2019-05-16T22:48:37.111Z,10.87
2019-05-16T22:51:27.134Z,12.90
2019-05-16T22:54:17.052Z,12.07
2019-05-16T22:57:06.542Z,10.17
2019-05-16T22:59:53.905Z,10.93
2019-05-16T23:02:41.497Z,11.07
2019-05-16T23:05:29.580Z,11.77
2019-05-16T23:08:17.538Z,13.80
2019-05-16T23:11:07.314Z,14.10
2019-05-16T23:13:56.818Z,10.30
2019-05-16T23:16:46.440Z,14.27
2019-05-16T23:19:36.662Z,12.87
2019-05-16T23:22:27.244Z,15.30
2019-05-16T23:25:16.930Z,11.57
2019-05-16T23:28:07.358Z,15.77
2019-05-16T23:30:57.555Z,14.40
2019-05-16T23:33:46.861Z,14.83
2019-05-16T23:36:33.961Z,13.23
2019-05-16T23:39:22.057Z,14.03
2019-05-16T23:42:09.745Z,15.53
2019-05-16T23:44:57.745Z,12.43
2019-05-16T23:47:47.191Z,11.90
2019-05-16T23:50:36.678Z,13.23
2019-05-16T23:53:24.781Z,13.47
2019-05-16T23:56:12.361Z,12.80
